sensor_id;sensor_type;location;lat;lon;timestamp;P1;durP1;ratioP1;P2;durP2;ratioP2
73684;SDS011;61985;51.070;14.064;2022-08-19T00:01:30;17.10;;;11.10;;
73684;SDS011;61985;51.070;14.064;2022-08-19T00:03:57;12.57;;;10.02;;
73684;SDS011;61985;51.070;14.064;2022-08-19T00:06:24;13.90;;;10.75;;
73684;SDS011;61985;51.070;14.064;2022-08-19T00:08:50;13.05;;;10.70;;
73684;SDS011;61985;51.070;14.064;2022-08-19T00:11:16;17.02;;;11.15;;
73684;SDS011;61985;51.070;14.064;2022-08-19T00:13:42;13.75;;;10.40;;
73684;SDS011;61985;51.070;14.064;2022-08-19T00:16:08;14.82;;;11.57;;
73684;SDS011;61985;51.070;14.064;2022-08-19T00:18:33;17.27;;;11.60;;
73684;SDS011;61985;51.070;14.064;2022-08-19T00:20:59;17.70;;;11.18;;
73684;SDS011;61985;51.070;14.064;2022-08-19T00:23:25;15.77;;;11.18;;
73684;SDS011;61985;51.070;14.064;2022-08-19T00:25:51;15.88;;;11.77;;
73684;SDS011;61985;51.070;14.064;2022-08-19T00:28:17;15.93;;;12.00;;
73684;SDS011;61985;51.070;14.064;2022-08-19T00:30:43;16.90;;;12.20;;
73684;SDS011;61985;51.070;14.064;2022-08-19T00:33:08;16.55;;;12.43;;
73684;SDS011;61985;51.070;14.064;2022-08-19T00:35:33;14.80;;;11.80;;
73684;SDS011;61985;51.070;14.064;2022-08-19T00:37:59;15.05;;;12.52;;
73684;SDS011;61985;51.070;14.064;2022-08-19T00:40:24;17.35;;;12.23;;
73684;SDS011;61985;51.070;14.064;2022-08-19T00:42:50;16.73;;;12.35;;
73684;SDS011;61985;51.070;14.064;2022-08-19T00:45:23;18.70;;;12.82;;
73684;SDS011;61985;51.070;14.064;2022-08-19T00:47:50;18.48;;;12.82;;
73684;SDS011;61985;51.070;14.064;2022-08-19T00:50:17;19.17;;;12.68;;
73684;SDS011;61985;51.070;14.064;2022-08-19T00:52:46;16.48;;;12.57;;
73684;SDS011;61985;51.070;14.064;2022-08-19T00:55:16;16.35;;;12.00;;
73684;SDS011;61985;51.070;14.064;2022-08-19T00:57:48;17.52;;;12.57;;
73684;SDS011;61985;51.070;14.064;2022-08-19T01:00:22;16.88;;;12.02;;
73684;SDS011;61985;51.070;14.064;2022-08-19T01:02:50;20.33;;;12.80;;
73684;SDS011;61985;51.070;14.064;2022-08-19T01:05:16;15.57;;;11.15;;
73684;SDS011;61985;51.070;14.064;2022-08-19T01:07:45;16.20;;;12.32;;
73684;SDS011;61985;51.070;14.064;2022-08-19T01:10:14;17.77;;;13.57;;
73684;SDS011;61985;51.070;14.064;2022-08-19T01:12:43;17.90;;;13.32;;
73684;SDS011;61985;51.070;14.064;2022-08-19T01:15:10;16.45;;;13.45;;
73684;SDS011;61985;51.070;14.064;2022-08-19T01:17:38;17.88;;;13.43;;
73684;SDS011;61985;51.070;14.064;2022-08-19T01:20:05;16.10;;;12.77;;
73684;SDS011;61985;51.070;14.064;2022-08-19T01:22:34;17.52;;;12.85;;
73684;SDS011;61985;51.070;14.064;2022-08-19T01:25:05;16.02;;;12.43;;
73684;SDS011;61985;51.070;14.064;2022-08-19T01:27:44;19.10;;;13.25;;
73684;SDS011;61985;51.070;14.064;2022-08-19T01:30:24;17.70;;;13.85;;
73684;SDS011;61985;51.070;14.064;2022-08-19T01:32:52;18.45;;;14.23;;
73684;SDS011;61985;51.070;14.064;2022-08-19T01:35:18;18.23;;;13.18;;
73684;SDS011;61985;51.070;14.064;2022-08-19T01:37:50;19.52;;;14.10;;
73684;SDS011;61985;51.070;14.064;2022-08-19T01:40:17;18.38;;;13.90;;
73684;SDS011;61985;51.070;14.064;2022-08-19T01:42:45;17.50;;;13.68;;
73684;SDS011;61985;51.070;14.064;2022-08-19T01:45:12;20.23;;;14.10;;
73684;SDS011;61985;51.070;14.064;2022-08-19T01:47:38;20.23;;;15.30;;
73684;SDS011;61985;51.070;14.064;2022-08-19T01:50:04;19.65;;;15.65;;
73684;SDS011;61985;51.070;14.064;2022-08-19T01:52:31;19.42;;;14.45;;
73684;SDS011;61985;51.070;14.064;2022-08-19T01:54:56;20.27;;;15.48;;
73684;SDS011;61985;51.070;14.064;2022-08-19T01:57:21;21.63;;;16.52;;
73684;SDS011;61985;51.070;14.064;2022-08-19T01:59:47;23.58;;;17.08;;
73684;SDS011;61985;51.070;14.064;2022-08-19T02:02:12;24.70;;;17.48;;
73684;SDS011;61985;51.070;14.064;2022-08-19T02:04:38;22.10;;;15.27;;
73684;SDS011;61985;51.070;14.064;2022-08-19T02:07:04;19.85;;;15.23;;
73684;SDS011;61985;51.070;14.064;2022-08-19T02:09:31;20.33;;;15.85;;
73684;SDS011;61985;51.070;14.064;2022-08-19T02:11:57;21.45;;;16.67;;
73684;SDS011;61985;51.070;14.064;2022-08-19T02:14:23;26.15;;;16.90;;
73684;SDS011;61985;51.070;14.064;2022-08-19T02:16:48;20.88;;;16.40;;
73684;SDS011;61985;51.070;14.064;2022-08-19T02:19:14;26.38;;;16.80;;
73684;SDS011;61985;51.070;14.064;2022-08-19T02:21:39;20.98;;;16.90;;
73684;SDS011;61985;51.070;14.064;2022-08-19T02:24:05;24.58;;;16.30;;
73684;SDS011;61985;51.070;14.064;2022-08-19T02:26:31;20.80;;;16.52;;
73684;SDS011;61985;51.070;14.064;2022-08-19T02:28:57;22.80;;;16.67;;
73684;SDS011;61985;51.070;14.064;2022-08-19T02:31:23;21.02;;;16.65;;
73684;SDS011;61985;51.070;14.064;2022-08-19T02:33:49;19.27;;;15.90;;
73684;SDS011;61985;51.070;14.064;2022-08-19T02:36:17;20.02;;;14.77;;
73684;SDS011;61985;51.070;14.064;2022-08-19T02:38:43;19.30;;;15.60;;
73684;SDS011;61985;51.070;14.064;2022-08-19T02:41:17;21.25;;;15.35;;
73684;SDS011;61985;51.070;14.064;2022-08-19T02:43:45;20.38;;;16.42;;
73684;SDS011;61985;51.070;14.064;2022-08-19T02:46:12;20.85;;;15.98;;
73684;SDS011;61985;51.070;14.064;2022-08-19T02:48:43;21.88;;;16.42;;
73684;SDS011;61985;51.070;14.064;2022-08-19T02:51:09;19.98;;;15.93;;
73684;SDS011;61985;51.070;14.064;2022-08-19T02:53:41;21.33;;;17.15;;
73684;SDS011;61985;51.070;14.064;2022-08-19T02:56:06;19.60;;;15.48;;
73684;SDS011;61985;51.070;14.064;2022-08-19T02:58:32;21.77;;;16.65;;
73684;SDS011;61985;51.070;14.064;2022-08-19T03:00:58;22.95;;;17.27;;
73684;SDS011;61985;51.070;14.064;2022-08-19T03:03:23;19.35;;;16.05;;
73684;SDS011;61985;51.070;14.064;2022-08-19T03:05:48;23.17;;;17.10;;
73684;SDS011;61985;51.070;14.064;2022-08-19T03:08:14;26.00;;;18.35;;
73684;SDS011;61985;51.070;14.064;2022-08-19T03:10:40;20.58;;;16.20;;
73684;SDS011;61985;51.070;14.064;2022-08-19T03:13:14;24.33;;;17.85;;
73684;SDS011;61985;51.070;14.064;2022-08-19T03:15:42;19.58;;;16.77;;
73684;SDS011;61985;51.070;14.064;2022-08-19T03:18:09;21.30;;;17.52;;
73684;SDS011;61985;51.070;14.064;2022-08-19T03:20:39;22.25;;;17.17;;
73684;SDS011;61985;51.070;14.064;2022-08-19T03:23:09;24.23;;;18.00;;
73684;SDS011;61985;51.070;14.064;2022-08-19T03:25:39;22.45;;;16.70;;
73684;SDS011;61985;51.070;14.064;2022-08-19T03:28:07;23.50;;;17.05;;
73684;SDS011;61985;51.070;14.064;2022-08-19T03:30:33;20.50;;;15.95;;
73684;SDS011;61985;51.070;14.064;2022-08-19T03:32:59;22.48;;;17.65;;
73684;SDS011;61985;51.070;14.064;2022-08-19T03:35:24;23.35;;;18.50;;
73684;SDS011;61985;51.070;14.064;2022-08-19T03:37:50;24.35;;;17.50;;
73684;SDS011;61985;51.070;14.064;2022-08-19T03:40:48;22.05;;;17.15;;
73684;SDS011;61985;51.070;14.064;2022-08-19T03:43:22;22.05;;;16.95;;
73684;SDS011;61985;51.070;14.064;2022-08-19T03:45:59;25.58;;;18.38;;
73684;SDS011;61985;51.070;14.064;2022-08-19T03:48:26;22.90;;;18.80;;
73684;SDS011;61985;51.070;14.064;2022-08-19T03:50:51;23.02;;;17.52;;
73684;SDS011;61985;51.070;14.064;2022-08-19T03:53:16;24.02;;;19.10;;
73684;SDS011;61985;51.070;14.064;2022-08-19T03:55:41;23.85;;;18.58;;
73684;SDS011;61985;51.070;14.064;2022-08-19T03:58:07;25.05;;;19.55;;
73684;SDS011;61985;51.070;14.064;2022-08-19T04:00:33;24.02;;;19.05;;
73684;SDS011;61985;51.070;14.064;2022-08-19T04:02:58;26.80;;;17.60;;
73684;SDS011;61985;51.070;14.064;2022-08-19T04:05:24;23.58;;;18.77;;
73684;SDS011;61985;51.070;14.064;2022-08-19T04:07:53;22.98;;;18.42;;
73684;SDS011;61985;51.070;14.064;2022-08-19T04:10:18;23.92;;;19.08;;
73684;SDS011;61985;51.070;14.064;2022-08-19T04:12:44;22.95;;;18.42;;
73684;SDS011;61985;51.070;14.064;2022-08-19T04:15:09;21.38;;;17.60;;
73684;SDS011;61985;51.070;14.064;2022-08-19T04:17:35;23.67;;;18.50;;
73684;SDS011;61985;51.070;14.064;2022-08-19T04:20:00;25.58;;;18.52;;
73684;SDS011;61985;51.070;14.064;2022-08-19T04:22:25;23.65;;;17.40;;
73684;SDS011;61985;51.070;14.064;2022-08-19T04:24:51;23.17;;;18.10;;
73684;SDS011;61985;51.070;14.064;2022-08-19T04:27:16;26.27;;;18.40;;
73684;SDS011;61985;51.070;14.064;2022-08-19T04:29:41;22.20;;;18.40;;
73684;SDS011;61985;51.070;14.064;2022-08-19T04:32:07;21.90;;;17.40;;
73684;SDS011;61985;51.070;14.064;2022-08-19T04:34:32;23.70;;;19.42;;
73684;SDS011;61985;51.070;14.064;2022-08-19T04:36:58;24.52;;;18.85;;
73684;SDS011;61985;51.070;14.064;2022-08-19T04:39:25;24.13;;;18.95;;
73684;SDS011;61985;51.070;14.064;2022-08-19T04:42:14;26.02;;;19.05;;
73684;SDS011;61985;51.070;14.064;2022-08-19T04:45:15;29.55;;;21.52;;
73684;SDS011;61985;51.070;14.064;2022-08-19T04:47:43;29.83;;;21.25;;
73684;SDS011;61985;51.070;14.064;2022-08-19T04:50:09;30.30;;;21.92;;
73684;SDS011;61985;51.070;14.064;2022-08-19T04:52:36;30.65;;;22.92;;
73684;SDS011;61985;51.070;14.064;2022-08-19T04:55:02;31.90;;;22.70;;
73684;SDS011;61985;51.070;14.064;2022-08-19T05:10:22;31.65;;;23.25;;
73684;SDS011;61985;51.070;14.064;2022-08-19T05:12:48;31.83;;;23.23;;
73684;SDS011;61985;51.070;14.064;2022-08-19T05:15:13;33.85;;;22.88;;
73684;SDS011;61985;51.070;14.064;2022-08-19T05:21:04;34.75;;;24.08;;
73684;SDS011;61985;51.070;14.064;2022-08-19T05:24:03;33.30;;;23.92;;
73684;SDS011;61985;51.070;14.064;2022-08-19T05:26:44;34.47;;;24.33;;
73684;SDS011;61985;51.070;14.064;2022-08-19T05:29:12;38.30;;;26.27;;
73684;SDS011;61985;51.070;14.064;2022-08-19T05:31:39;37.28;;;24.77;;
73684;SDS011;61985;51.070;14.064;2022-08-19T05:34:05;32.15;;;24.48;;
73684;SDS011;61985;51.070;14.064;2022-08-19T05:36:33;33.60;;;25.50;;
73684;SDS011;61985;51.070;14.064;2022-08-19T05:39:03;34.78;;;26.35;;
73684;SDS011;61985;51.070;14.064;2022-08-19T05:41:29;38.10;;;26.98;;
73684;SDS011;61985;51.070;14.064;2022-08-19T05:43:56;35.00;;;25.25;;
73684;SDS011;61985;51.070;14.064;2022-08-19T05:46:22;38.35;;;27.65;;
73684;SDS011;61985;51.070;14.064;2022-08-19T05:48:48;34.97;;;25.58;;
73684;SDS011;61985;51.070;14.064;2022-08-19T05:51:13;36.05;;;25.83;;
73684;SDS011;61985;51.070;14.064;2022-08-19T05:53:40;36.33;;;25.40;;
73684;SDS011;61985;51.070;14.064;2022-08-19T05:56:13;35.30;;;25.70;;
73684;SDS011;61985;51.070;14.064;2022-08-19T05:58:49;31.73;;;24.90;;
73684;SDS011;61985;51.070;14.064;2022-08-19T06:01:23;34.78;;;24.77;;
73684;SDS011;61985;51.070;14.064;2022-08-19T06:03:58;36.28;;;26.27;;
73684;SDS011;61985;51.070;14.064;2022-08-19T06:06:23;36.45;;;25.67;;
73684;SDS011;61985;51.070;14.064;2022-08-19T06:08:49;39.88;;;26.88;;
73684;SDS011;61985;51.070;14.064;2022-08-19T06:13:44;40.08;;;27.88;;
73684;SDS011;61985;51.070;14.064;2022-08-19T06:16:12;40.35;;;26.48;;
73684;SDS011;61985;51.070;14.064;2022-08-19T06:18:45;39.38;;;25.92;;
73684;SDS011;61985;51.070;14.064;2022-08-19T06:21:11;36.33;;;27.45;;
73684;SDS011;61985;51.070;14.064;2022-08-19T06:23:42;44.47;;;28.40;;
73684;SDS011;61985;51.070;14.064;2022-08-19T06:26:11;47.08;;;29.38;;
73684;SDS011;61985;51.070;14.064;2022-08-19T06:28:59;42.00;;;28.67;;
73684;SDS011;61985;51.070;14.064;2022-08-19T06:31:36;39.00;;;28.98;;
73684;SDS011;61985;51.070;14.064;2022-08-19T06:34:11;38.95;;;26.88;;
73684;SDS011;61985;51.070;14.064;2022-08-19T06:36:38;41.42;;;27.85;;
73684;SDS011;61985;51.070;14.064;2022-08-19T06:39:07;40.78;;;26.70;;
73684;SDS011;61985;51.070;14.064;2022-08-19T06:41:36;39.65;;;26.52;;
73684;SDS011;61985;51.070;14.064;2022-08-19T06:44:03;39.05;;;26.35;;
73684;SDS011;61985;51.070;14.064;2022-08-19T06:46:29;40.08;;;28.23;;
73684;SDS011;61985;51.070;14.064;2022-08-19T06:48:55;40.65;;;25.75;;
73684;SDS011;61985;51.070;14.064;2022-08-19T06:51:22;35.20;;;23.33;;
73684;SDS011;61985;51.070;14.064;2022-08-19T06:53:49;35.10;;;23.50;;
73684;SDS011;61985;51.070;14.064;2022-08-19T06:56:19;37.67;;;23.90;;
73684;SDS011;61985;51.070;14.064;2022-08-19T06:58:59;39.38;;;24.02;;
73684;SDS011;61985;51.070;14.064;2022-08-19T07:01:31;33.17;;;23.30;;
73684;SDS011;61985;51.070;14.064;2022-08-19T07:04:24;30.02;;;21.55;;
73684;SDS011;61985;51.070;14.064;2022-08-19T07:06:56;31.33;;;20.83;;
73684;SDS011;61985;51.070;14.064;2022-08-19T07:09:29;35.22;;;22.02;;
73684;SDS011;61985;51.070;14.064;2022-08-19T07:11:57;29.25;;;20.58;;
73684;SDS011;61985;51.070;14.064;2022-08-19T07:14:23;27.75;;;19.77;;
73684;SDS011;61985;51.070;14.064;2022-08-19T07:16:52;31.00;;;19.65;;
73684;SDS011;61985;51.070;14.064;2022-08-19T07:19:20;26.80;;;20.00;;
73684;SDS011;61985;51.070;14.064;2022-08-19T07:21:48;26.63;;;18.40;;
73684;SDS011;61985;51.070;14.064;2022-08-19T07:24:24;22.42;;;17.00;;
73684;SDS011;61985;51.070;14.064;2022-08-19T07:26:52;23.65;;;17.20;;
73684;SDS011;61985;51.070;14.064;2022-08-19T07:29:28;24.30;;;17.55;;
73684;SDS011;61985;51.070;14.064;2022-08-19T07:31:56;22.70;;;16.80;;
73684;SDS011;61985;51.070;14.064;2022-08-19T07:34:23;23.20;;;17.85;;
73684;SDS011;61985;51.070;14.064;2022-08-19T07:36:50;24.63;;;17.90;;
73684;SDS011;61985;51.070;14.064;2022-08-19T07:39:29;22.75;;;17.35;;
73684;SDS011;61985;51.070;14.064;2022-08-19T07:41:57;30.60;;;18.65;;
73684;SDS011;61985;51.070;14.064;2022-08-19T07:44:25;25.35;;;18.58;;
73684;SDS011;61985;51.070;14.064;2022-08-19T07:46:51;26.85;;;16.88;;
73684;SDS011;61985;51.070;14.064;2022-08-19T07:49:19;26.10;;;18.42;;
73684;SDS011;61985;51.070;14.064;2022-08-19T07:51:46;22.92;;;16.77;;
73684;SDS011;61985;51.070;14.064;2022-08-19T07:54:24;24.80;;;17.65;;
73684;SDS011;61985;51.070;14.064;2022-08-19T07:56:54;21.92;;;17.40;;
73684;SDS011;61985;51.070;14.064;2022-08-19T07:59:22;26.92;;;20.67;;
73684;SDS011;61985;51.070;14.064;2022-08-19T08:01:50;28.13;;;18.10;;
73684;SDS011;61985;51.070;14.064;2022-08-19T08:04:17;23.65;;;17.42;;
73684;SDS011;61985;51.070;14.064;2022-08-19T08:07:02;23.50;;;18.02;;
73684;SDS011;61985;51.070;14.064;2022-08-19T08:09:47;23.45;;;17.83;;
73684;SDS011;61985;51.070;14.064;2022-08-19T08:12:21;25.42;;;17.67;;
73684;SDS011;61985;51.070;14.064;2022-08-19T08:14:54;23.45;;;17.55;;
73684;SDS011;61985;51.070;14.064;2022-08-19T08:17:24;23.27;;;17.88;;
73684;SDS011;61985;51.070;14.064;2022-08-19T08:19:53;26.23;;;18.30;;
73684;SDS011;61985;51.070;14.064;2022-08-19T08:22:19;22.92;;;17.08;;
73684;SDS011;61985;51.070;14.064;2022-08-19T08:25:10;22.20;;;15.70;;
73684;SDS011;61985;51.070;14.064;2022-08-19T08:27:41;21.73;;;15.45;;
73684;SDS011;61985;51.070;14.064;2022-08-19T08:30:10;23.13;;;16.17;;
73684;SDS011;61985;51.070;14.064;2022-08-19T08:32:40;20.85;;;15.43;;
73684;SDS011;61985;51.070;14.064;2022-08-19T08:35:07;21.42;;;15.65;;
73684;SDS011;61985;51.070;14.064;2022-08-19T08:37:35;19.70;;;14.55;;
73684;SDS011;61985;51.070;14.064;2022-08-19T08:40:06;20.02;;;15.02;;
73684;SDS011;61985;51.070;14.064;2022-08-19T08:42:48;20.35;;;15.35;;
73684;SDS011;61985;51.070;14.064;2022-08-19T08:45:25;20.38;;;14.75;;
73684;SDS011;61985;51.070;14.064;2022-08-19T08:47:52;20.65;;;14.27;;
73684;SDS011;61985;51.070;14.064;2022-08-19T08:52:55;19.48;;;14.88;;
73684;SDS011;61985;51.070;14.064;2022-08-19T08:55:27;20.73;;;15.05;;
73684;SDS011;61985;51.070;14.064;2022-08-19T08:58:03;18.13;;;13.55;;
73684;SDS011;61985;51.070;14.064;2022-08-19T09:00:36;19.75;;;14.07;;
73684;SDS011;61985;51.070;14.064;2022-08-19T09:03:03;18.10;;;14.77;;
73684;SDS011;61985;51.070;14.064;2022-08-19T12:22:58;12.00;;;9.70;;
73684;SDS011;61985;51.070;14.064;2022-08-19T12:25:24;13.00;;;11.10;;
73684;SDS011;61985;51.070;14.064;2022-08-19T12:27:57;15.02;;;10.95;;
73684;SDS011;61985;51.070;14.064;2022-08-19T12:30:26;14.75;;;11.82;;
73684;SDS011;61985;51.070;14.064;2022-08-19T12:32:55;15.32;;;11.00;;
73684;SDS011;61985;51.070;14.064;2022-08-19T12:35:20;12.75;;;10.75;;
73684;SDS011;61985;51.070;14.064;2022-08-19T12:38:01;16.08;;;12.15;;
73684;SDS011;61985;51.070;14.064;2022-08-19T15:38:57;34.40;;;22.88;;
73684;SDS011;61985;51.070;14.064;2022-08-19T15:41:23;40.88;;;23.95;;
73684;SDS011;61985;51.070;14.064;2022-08-19T15:44:08;35.47;;;24.88;;
73684;SDS011;61985;51.070;14.064;2022-08-19T15:46:36;33.95;;;23.60;;
73684;SDS011;61985;51.070;14.064;2022-08-19T15:49:04;32.70;;;23.35;;
73684;SDS011;61985;51.070;14.064;2022-08-19T15:51:31;36.22;;;23.38;;
73684;SDS011;61985;51.070;14.064;2022-08-19T15:53:59;34.58;;;23.33;;
73684;SDS011;61985;51.070;14.064;2022-08-19T15:56:26;40.60;;;23.02;;
73684;SDS011;61985;51.070;14.064;2022-08-19T15:59:11;31.35;;;22.45;;
73684;SDS011;61985;51.070;14.064;2022-08-19T16:01:56;31.48;;;22.98;;
73684;SDS011;61985;51.070;14.064;2022-08-19T16:04:40;41.33;;;23.70;;
73684;SDS011;61985;51.070;14.064;2022-08-19T16:07:24;35.17;;;23.05;;
73684;SDS011;61985;51.070;14.064;2022-08-19T16:09:52;34.97;;;22.75;;
73684;SDS011;61985;51.070;14.064;2022-08-19T16:12:43;28.60;;;20.65;;
73684;SDS011;61985;51.070;14.064;2022-08-19T16:18:21;32.80;;;22.27;;
73684;SDS011;61985;51.070;14.064;2022-08-19T16:20:49;29.58;;;21.15;;
73684;SDS011;61985;51.070;14.064;2022-08-19T16:23:15;32.75;;;22.65;;
73684;SDS011;61985;51.070;14.064;2022-08-19T16:25:43;33.08;;;21.98;;
73684;SDS011;61985;51.070;14.064;2022-08-19T16:28:08;32.88;;;22.85;;
73684;SDS011;61985;51.070;14.064;2022-08-19T16:30:37;34.38;;;21.95;;
73684;SDS011;61985;51.070;14.064;2022-08-19T16:33:04;32.00;;;21.85;;
73684;SDS011;61985;51.070;14.064;2022-08-19T16:35:30;30.52;;;22.25;;
73684;SDS011;61985;51.070;14.064;2022-08-19T16:37:55;37.22;;;24.20;;
73684;SDS011;61985;51.070;14.064;2022-08-19T16:40:21;32.30;;;22.25;;
73684;SDS011;61985;51.070;14.064;2022-08-19T16:42:46;31.92;;;21.45;;
73684;SDS011;61985;51.070;14.064;2022-08-19T16:45:11;32.08;;;22.60;;
73684;SDS011;61985;51.070;14.064;2022-08-19T16:47:42;34.40;;;23.20;;
73684;SDS011;61985;51.070;14.064;2022-08-19T16:50:21;32.35;;;22.80;;
73684;SDS011;61985;51.070;14.064;2022-08-19T16:52:49;33.58;;;22.05;;
73684;SDS011;61985;51.070;14.064;2022-08-19T16:55:14;35.22;;;22.85;;
73684;SDS011;61985;51.070;14.064;2022-08-19T16:57:47;36.40;;;24.45;;
73684;SDS011;61985;51.070;14.064;2022-08-19T17:00:12;35.03;;;23.10;;
73684;SDS011;61985;51.070;14.064;2022-08-19T17:02:38;37.05;;;23.05;;
73684;SDS011;61985;51.070;14.064;2022-08-19T17:05:05;32.92;;;22.20;;
73684;SDS011;61985;51.070;14.064;2022-08-19T17:07:37;33.33;;;22.25;;
73684;SDS011;61985;51.070;14.064;2022-08-19T17:10:13;32.33;;;23.33;;
73684;SDS011;61985;51.070;14.064;2022-08-19T17:12:41;37.92;;;24.08;;
73684;SDS011;61985;51.070;14.064;2022-08-19T17:15:09;33.20;;;23.60;;
73684;SDS011;61985;51.070;14.064;2022-08-19T17:17:44;31.33;;;22.55;;
73684;SDS011;61985;51.070;14.064;2022-08-19T17:20:09;34.92;;;22.95;;
73684;SDS011;61985;51.070;14.064;2022-08-19T17:22:37;35.55;;;23.95;;
73684;SDS011;61985;51.070;14.064;2022-08-19T17:25:02;34.92;;;22.50;;
73684;SDS011;61985;51.070;14.064;2022-08-19T17:27:31;33.95;;;23.30;;
73684;SDS011;61985;51.070;14.064;2022-08-19T17:29:56;33.53;;;24.15;;
73684;SDS011;61985;51.070;14.064;2022-08-19T17:32:23;34.05;;;22.83;;
73684;SDS011;61985;51.070;14.064;2022-08-19T17:34:51;37.22;;;24.15;;
73684;SDS011;61985;51.070;14.064;2022-08-19T17:37:18;36.00;;;24.20;;
73684;SDS011;61985;51.070;14.064;2022-08-19T17:39:43;35.53;;;24.27;;
73684;SDS011;61985;51.070;14.064;2022-08-19T17:42:09;33.63;;;22.88;;
73684;SDS011;61985;51.070;14.064;2022-08-19T17:44:43;34.78;;;22.38;;
73684;SDS011;61985;51.070;14.064;2022-08-19T17:47:23;35.35;;;23.08;;
73684;SDS011;61985;51.070;14.064;2022-08-19T17:49:50;30.95;;;20.85;;
73684;SDS011;61985;51.070;14.064;2022-08-19T17:52:16;32.28;;;22.75;;
73684;SDS011;61985;51.070;14.064;2022-08-19T17:54:42;34.50;;;23.00;;
73684;SDS011;61985;51.070;14.064;2022-08-19T17:57:08;34.67;;;23.90;;
73684;SDS011;61985;51.070;14.064;2022-08-19T17:59:33;38.80;;;23.55;;
73684;SDS011;61985;51.070;14.064;2022-08-19T18:02:05;31.42;;;22.05;;
73684;SDS011;61985;51.070;14.064;2022-08-19T18:04:39;34.13;;;23.17;;
73684;SDS011;61985;51.070;14.064;2022-08-19T18:07:06;34.08;;;22.67;;
73684;SDS011;61985;51.070;14.064;2022-08-19T18:09:45;31.75;;;22.25;;
73684;SDS011;61985;51.070;14.064;2022-08-19T18:12:14;31.42;;;22.58;;
73684;SDS011;61985;51.070;14.064;2022-08-19T18:14:41;30.88;;;20.88;;
73684;SDS011;61985;51.070;14.064;2022-08-19T18:17:10;29.63;;;20.90;;
73684;SDS011;61985;51.070;14.064;2022-08-19T18:19:45;31.77;;;22.02;;
73684;SDS011;61985;51.070;14.064;2022-08-19T18:22:33;32.72;;;21.95;;
73684;SDS011;61985;51.070;14.064;2022-08-19T18:28:02;33.20;;;21.80;;
73684;SDS011;61985;51.070;14.064;2022-08-19T18:30:40;32.25;;;20.80;;
73684;SDS011;61985;51.070;14.064;2022-08-19T18:33:19;32.47;;;20.73;;
73684;SDS011;61985;51.070;14.064;2022-08-19T18:35:51;27.55;;;19.63;;
73684;SDS011;61985;51.070;14.064;2022-08-19T18:38:22;32.45;;;21.30;;
73684;SDS011;61985;51.070;14.064;2022-08-19T18:41:06;30.23;;;21.55;;
73684;SDS011;61985;51.070;14.064;2022-08-19T18:43:51;30.90;;;20.95;;
73684;SDS011;61985;51.070;14.064;2022-08-19T18:46:35;32.55;;;21.52;;
73684;SDS011;61985;51.070;14.064;2022-08-19T18:49:21;28.98;;;20.75;;
73684;SDS011;61985;51.070;14.064;2022-08-19T18:51:57;32.35;;;21.58;;
73684;SDS011;61985;51.070;14.064;2022-08-19T18:54:28;30.38;;;21.30;;
73684;SDS011;61985;51.070;14.064;2022-08-19T18:57:04;30.65;;;21.50;;
73684;SDS011;61985;51.070;14.064;2022-08-19T18:59:33;32.10;;;22.27;;
73684;SDS011;61985;51.070;14.064;2022-08-19T19:01:58;30.95;;;21.08;;
73684;SDS011;61985;51.070;14.064;2022-08-19T19:04:26;32.63;;;21.88;;
73684;SDS011;61985;51.070;14.064;2022-08-19T19:07:02;32.80;;;22.35;;
73684;SDS011;61985;51.070;14.064;2022-08-19T19:09:29;31.20;;;21.55;;
73684;SDS011;61985;51.070;14.064;2022-08-19T19:11:58;31.55;;;21.48;;
73684;SDS011;61985;51.070;14.064;2022-08-19T19:14:27;31.23;;;21.25;;
73684;SDS011;61985;51.070;14.064;2022-08-19T19:17:01;30.70;;;21.52;;
73684;SDS011;61985;51.070;14.064;2022-08-19T19:19:41;28.90;;;20.92;;
73684;SDS011;61985;51.070;14.064;2022-08-19T19:22:12;31.13;;;21.80;;
73684;SDS011;61985;51.070;14.064;2022-08-19T19:24:46;29.65;;;21.27;;
73684;SDS011;61985;51.070;14.064;2022-08-19T19:27:18;29.38;;;19.63;;
73684;SDS011;61985;51.070;14.064;2022-08-19T19:29:51;28.83;;;20.30;;
73684;SDS011;61985;51.070;14.064;2022-08-19T19:32:25;28.10;;;19.67;;
73684;SDS011;61985;51.070;14.064;2022-08-19T19:34:54;27.17;;;20.08;;
73684;SDS011;61985;51.070;14.064;2022-08-19T19:37:26;30.42;;;19.90;;
73684;SDS011;61985;51.070;14.064;2022-08-19T19:39:59;29.13;;;21.35;;
73684;SDS011;61985;51.070;14.064;2022-08-19T19:42:37;32.55;;;22.10;;
73684;SDS011;61985;51.070;14.064;2022-08-19T19:45:09;32.72;;;23.33;;
73684;SDS011;61985;51.070;14.064;2022-08-19T19:47:40;31.40;;;22.48;;
73684;SDS011;61985;51.070;14.064;2022-08-19T19:50:08;31.00;;;21.83;;
73684;SDS011;61985;51.070;14.064;2022-08-19T19:52:37;33.53;;;22.65;;
73684;SDS011;61985;51.070;14.064;2022-08-19T19:55:04;31.70;;;22.70;;
73684;SDS011;61985;51.070;14.064;2022-08-19T20:00:39;30.08;;;21.13;;
73684;SDS011;61985;51.070;14.064;2022-08-19T20:03:04;27.30;;;20.15;;
73684;SDS011;61985;51.070;14.064;2022-08-19T20:05:30;28.83;;;21.50;;
73684;SDS011;61985;51.070;14.064;2022-08-19T20:07:56;28.75;;;20.30;;
73684;SDS011;61985;51.070;14.064;2022-08-19T20:10:46;29.52;;;20.73;;
73684;SDS011;61985;51.070;14.064;2022-08-19T20:13:24;30.00;;;20.60;;
73684;SDS011;61985;51.070;14.064;2022-08-19T20:15:55;30.48;;;20.83;;
73684;SDS011;61985;51.070;14.064;2022-08-19T20:35:35;29.67;;;22.17;;
73684;SDS011;61985;51.070;14.064;2022-08-19T20:38:13;31.17;;;21.65;;
73684;SDS011;61985;51.070;14.064;2022-08-19T20:40:44;29.75;;;21.95;;
73684;SDS011;61985;51.070;14.064;2022-08-19T20:45:54;33.72;;;23.30;;
73684;SDS011;61985;51.070;14.064;2022-08-19T20:50:56;36.60;;;22.75;;
73684;SDS011;61985;51.070;14.064;2022-08-19T20:53:27;31.08;;;22.45;;
73684;SDS011;61985;51.070;14.064;2022-08-19T20:55:53;34.63;;;21.10;;
73684;SDS011;61985;51.070;14.064;2022-08-19T20:58:25;35.00;;;24.23;;
73684;SDS011;61985;51.070;14.064;2022-08-19T21:01:10;31.40;;;21.73;;
73684;SDS011;61985;51.070;14.064;2022-08-19T21:03:37;36.53;;;24.80;;
73684;SDS011;61985;51.070;14.064;2022-08-19T21:06:28;33.28;;;23.50;;
73684;SDS011;61985;51.070;14.064;2022-08-19T21:08:55;31.80;;;22.85;;
73684;SDS011;61985;51.070;14.064;2022-08-19T21:11:21;31.98;;;23.83;;
73684;SDS011;61985;51.070;14.064;2022-08-19T21:13:46;32.95;;;22.40;;
73684;SDS011;61985;51.070;14.064;2022-08-19T21:16:12;36.13;;;23.85;;
73684;SDS011;61985;51.070;14.064;2022-08-19T21:18:38;35.08;;;24.58;;
73684;SDS011;61985;51.070;14.064;2022-08-19T21:21:03;35.40;;;23.80;;
73684;SDS011;61985;51.070;14.064;2022-08-19T21:23:29;38.38;;;26.08;;
73684;SDS011;61985;51.070;14.064;2022-08-19T21:25:56;37.38;;;26.45;;
73684;SDS011;61985;51.070;14.064;2022-08-19T21:28:23;37.05;;;25.65;;
73684;SDS011;61985;51.070;14.064;2022-08-19T21:30:50;39.45;;;27.33;;
73684;SDS011;61985;51.070;14.064;2022-08-19T21:33:17;42.40;;;28.17;;